sensor_id;sensor_type;location;lat;lon;timestamp;pressure;altitude;pressure_sealevel;temperature;humidity
48792;BME280;34587;48.816;9.420;2023-06-10T04:16:04;98449.84;;;14.28;86.03
48792;BME280;34587;48.816;9.420;2023-06-10T04:18:29;98446.97;;;14.34;85.64
48792;BME280;34587;48.816;9.420;2023-06-10T04:20:54;98449.94;;;14.48;86.47
48792;BME280;34587;48.816;9.420;2023-06-10T04:23:20;98450.59;;;14.53;85.91
48792;BME280;34587;48.816;9.420;2023-06-10T04:25:46;98451.03;;;14.64;86.05
48792;BME280;34587;48.816;9.420;2023-06-10T04:28:11;98450.91;;;14.68;85.72
48792;BME280;34587;48.816;9.420;2023-06-10T04:30:37;98455.09;;;14.72;85.14
48792;BME280;34587;48.816;9.420;2023-06-10T04:33:02;98457.09;;;14.87;84.02
48792;BME280;34587;48.816;9.420;2023-06-10T04:35:27;98451.50;;;14.96;83.98
48792;BME280;34587;48.816;9.420;2023-06-10T04:37:53;98459.97;;;15.01;83.27
48792;BME280;34587;48.816;9.420;2023-06-10T04:40:19;98458.03;;;15.06;82.57
48792;BME280;34587;48.816;9.420;2023-06-10T04:42:44;98463.91;;;15.11;82.50
48792;BME280;34587;48.816;9.420;2023-06-10T04:45:09;98455.50;;;15.25;82.91
48792;BME280;34587;48.816;9.420;2023-06-10T04:47:35;98458.47;;;15.38;81.46
48792;BME280;34587;48.816;9.420;2023-06-10T04:50:01;98462.69;;;15.40;81.58
48792;BME280;34587;48.816;9.420;2023-06-10T04:52:26;98461.19;;;15.55;81.15
48792;BME280;34587;48.816;9.420;2023-06-10T04:54:52;98458.56;;;15.76;80.14
48792;BME280;34587;48.816;9.420;2023-06-10T04:57:18;98459.59;;;15.92;79.31
48792;BME280;34587;48.816;9.420;2023-06-10T04:59:45;98457.34;;;16.03;78.92
48792;BME280;34587;48.816;9.420;2023-06-10T05:02:10;98455.88;;;16.16;78.02
48792;BME280;34587;48.816;9.420;2023-06-10T05:04:36;98458.19;;;16.41;76.43
48792;BME280;34587;48.816;9.420;2023-06-10T05:07:01;98459.75;;;16.64;74.87
48792;BME280;34587;48.816;9.420;2023-06-10T05:09:26;98462.84;;;16.73;74.84
48792;BME280;34587;48.816;9.420;2023-06-10T05:11:51;98459.28;;;16.92;73.26
48792;BME280;34587;48.816;9.420;2023-06-10T05:14:18;98465.06;;;16.99;73.00
48792;BME280;34587;48.816;9.420;2023-06-10T05:16:44;98462.47;;;17.16;71.80
48792;BME280;34587;48.816;9.420;2023-06-10T05:19:09;98462.63;;;17.13;72.69
48792;BME280;34587;48.816;9.420;2023-06-10T05:21:35;98465.22;;;17.31;72.28
48792;BME280;34587;48.816;9.420;2023-06-10T05:24:00;98462.09;;;17.41;71.12
48792;BME280;34587;48.816;9.420;2023-06-10T05:26:25;98462.22;;;17.56;70.50
48792;BME280;34587;48.816;9.420;2023-06-10T05:28:50;98457.97;;;17.53;70.86
48792;BME280;34587;48.816;9.420;2023-06-10T05:31:16;98467.53;;;17.54;71.47
48792;BME280;34587;48.816;9.420;2023-06-10T05:33:41;98464.78;;;17.75;70.44
48792;BME280;34587;48.816;9.420;2023-06-10T05:36:06;98459.72;;;17.87;69.93
48792;BME280;34587;48.816;9.420;2023-06-10T05:38:32;98457.47;;;17.97;70.03
48792;BME280;34587;48.816;9.420;2023-06-10T05:40:57;98454.84;;;18.13;69.18
48792;BME280;34587;48.816;9.420;2023-06-10T05:43:24;98462.31;;;18.20;69.12
48792;BME280;34587;48.816;9.420;2023-06-10T05:45:49;98461.41;;;18.37;68.22
48792;BME280;34587;48.816;9.420;2023-06-10T05:48:14;98467.59;;;18.52;67.71
48792;BME280;34587;48.816;9.420;2023-06-10T05:50:39;98464.75;;;18.72;67.49
48792;BME280;34587;48.816;9.420;2023-06-10T05:53:08;98467.22;;;19.06;66.64
48792;BME280;34587;48.816;9.420;2023-06-10T05:55:43;98471.44;;;19.08;65.94
48792;BME280;34587;48.816;9.420;2023-06-10T05:58:08;98472.44;;;19.21;66.56
48792;BME280;34587;48.816;9.420;2023-06-10T06:00:33;98474.00;;;19.40;65.58
48792;BME280;34587;48.816;9.420;2023-06-10T06:02:59;98474.63;;;19.43;64.70
48792;BME280;34587;48.816;9.420;2023-06-10T06:05:24;98475.28;;;19.33;64.64
48792;BME280;34587;48.816;9.420;2023-06-10T06:07:50;98480.16;;;19.39;64.48
48792;BME280;34587;48.816;9.420;2023-06-10T06:10:17;98477.63;;;19.67;64.35
48792;BME280;34587;48.816;9.420;2023-06-10T06:12:42;98471.84;;;19.91;63.34
48792;BME280;34587;48.816;9.420;2023-06-10T06:15:08;98474.09;;;19.97;63.26
48792;BME280;34587;48.816;9.420;2023-06-10T06:17:34;98472.75;;;20.33;63.49
48792;BME280;34587;48.816;9.420;2023-06-10T06:19:59;98460.16;;;20.52;61.92
48792;BME280;34587;48.816;9.420;2023-06-10T06:22:24;98466.72;;;20.45;61.71
48792;BME280;34587;48.816;9.420;2023-06-10T06:24:50;98465.44;;;20.52;62.09
48792;BME280;34587;48.816;9.420;2023-06-10T06:27:16;98471.63;;;20.51;61.43
48792;BME280;34587;48.816;9.420;2023-06-10T06:29:41;98465.50;;;20.92;61.25
48792;BME280;34587;48.816;9.420;2023-06-10T06:32:06;98465.44;;;21.06;59.99
48792;BME280;34587;48.816;9.420;2023-06-10T06:34:32;98461.16;;;21.18;59.54
48792;BME280;34587;48.816;9.420;2023-06-10T06:36:58;98468.34;;;21.28;59.29
48792;BME280;34587;48.816;9.420;2023-06-10T06:39:23;98470.75;;;21.71;58.09
48792;BME280;34587;48.816;9.420;2023-06-10T06:41:49;98471.91;;;21.93;57.11
48792;BME280;34587;48.816;9.420;2023-06-10T06:44:14;98468.22;;;21.83;57.13
48792;BME280;34587;48.816;9.420;2023-06-10T06:46:40;98468.75;;;22.13;56.37
48792;BME280;34587;48.816;9.420;2023-06-10T06:49:05;98475.59;;;23.02;52.90
48792;BME280;34587;48.816;9.420;2023-06-10T06:51:31;98472.50;;;24.34;50.50
48792;BME280;34587;48.816;9.420;2023-06-10T06:53:56;98465.69;;;26.23;45.40
48792;BME280;34587;48.816;9.420;2023-06-10T06:56:24;98465.19;;;26.79;44.07
48792;BME280;34587;48.816;9.420;2023-06-10T06:58:49;98459.88;;;28.96;38.79
48792;BME280;34587;48.816;9.420;2023-06-10T07:01:15;98456.75;;;29.80;37.59
48792;BME280;34587;48.816;9.420;2023-06-10T07:03:40;98460.59;;;30.80;35.36
48792;BME280;34587;48.816;9.420;2023-06-10T07:06:05;98462.69;;;31.27;33.83
48792;BME280;34587;48.816;9.420;2023-06-10T07:08:31;98472.69;;;31.25;33.88
48792;BME280;34587;48.816;9.420;2023-06-10T07:10:56;98468.66;;;31.13;33.82
48792;BME280;34587;48.816;9.420;2023-06-10T07:13:21;98476.28;;;32.30;31.71
48792;BME280;34587;48.816;9.420;2023-06-10T07:15:47;98477.72;;;31.20;32.53
48792;BME280;34587;48.816;9.420;2023-06-10T07:18:15;98465.88;;;31.39;33.46
48792;BME280;34587;48.816;9.420;2023-06-10T07:20:41;98476.06;;;31.68;32.26
48792;BME280;34587;48.816;9.420;2023-06-10T07:23:06;98480.31;;;33.50;29.77
48792;BME280;34587;48.816;9.420;2023-06-10T07:25:31;98478.16;;;33.69;29.40
48792;BME280;34587;48.816;9.420;2023-06-10T07:27:57;98474.19;;;33.19;30.38
48792;BME280;34587;48.816;9.420;2023-06-10T07:30:22;98473.28;;;33.04;30.29
48792;BME280;34587;48.816;9.420;2023-06-10T07:32:47;98471.53;;;33.11;29.50
48792;BME280;34587;48.816;9.420;2023-06-10T07:35:13;98478.50;;;32.66;29.47
48792;BME280;34587;48.816;9.420;2023-06-10T07:37:38;98478.53;;;32.58;29.77
48792;BME280;34587;48.816;9.420;2023-06-10T07:40:04;98480.84;;;32.21;30.37
48792;BME280;34587;48.816;9.420;2023-06-10T07:42:34;98475.75;;;32.43;31.21
48792;BME280;34587;48.816;9.420;2023-06-10T07:45:00;98471.72;;;32.47;30.49
48792;BME280;34587;48.816;9.420;2023-06-10T07:47:25;98467.50;;;33.15;29.49
48792;BME280;34587;48.816;9.420;2023-06-10T07:49:50;98463.72;;;33.01;29.75
48792;BME280;34587;48.816;9.420;2023-06-10T07:52:16;98462.28;;;34.12;28.79
48792;BME280;34587;48.816;9.420;2023-06-10T07:54:41;98463.34;;;33.88;28.78
48792;BME280;34587;48.816;9.420;2023-06-10T07:57:06;98480.28;;;31.87;31.03
48792;BME280;34587;48.816;9.420;2023-06-10T07:59:32;98471.84;;;33.16;29.19
48792;BME280;34587;48.816;9.420;2023-06-10T08:01:58;98465.97;;;34.40;28.46
48792;BME280;34587;48.816;9.420;2023-06-10T08:04:23;98463.94;;;32.60;29.98
48792;BME280;34587;48.816;9.420;2023-06-10T08:06:48;98469.63;;;32.96;29.77
48792;BME280;34587;48.816;9.420;2023-06-10T08:09:13;98475.22;;;32.47;30.44
48792;BME280;34587;48.816;9.420;2023-06-10T08:11:39;98468.50;;;32.52;30.14
48792;BME280;34587;48.816;9.420;2023-06-10T08:14:04;98467.47;;;32.61;30.00
48792;BME280;34587;48.816;9.420;2023-06-10T08:16:29;98466.63;;;32.05;31.36
48792;BME280;34587;48.816;9.420;2023-06-10T08:18:55;98461.91;;;33.39;28.65
48792;BME280;34587;48.816;9.420;2023-06-10T08:21:20;98455.81;;;35.08;27.12
48792;BME280;34587;48.816;9.420;2023-06-10T08:23:46;98449.44;;;37.37;24.35
48792;BME280;34587;48.816;9.420;2023-06-10T08:26:11;98451.72;;;35.83;25.26
48792;BME280;34587;48.816;9.420;2023-06-10T08:28:37;98449.66;;;35.36;26.45
48792;BME280;34587;48.816;9.420;2023-06-10T08:31:02;98454.09;;;36.89;25.14
48792;BME280;34587;48.816;9.420;2023-06-10T08:33:27;98451.16;;;35.17;26.42
48792;BME280;34587;48.816;9.420;2023-06-10T08:35:52;98448.63;;;37.50;23.61
48792;BME280;34587;48.816;9.420;2023-06-10T08:38:18;98441.31;;;37.90;22.93
48792;BME280;34587;48.816;9.420;2023-06-10T08:40:43;98445.22;;;35.28;26.08
48792;BME280;34587;48.816;9.420;2023-06-10T08:43:34;98448.22;;;35.89;25.86
48792;BME280;34587;48.816;9.420;2023-06-10T08:46:02;98448.66;;;34.79;26.56
48792;BME280;34587;48.816;9.420;2023-06-10T08:48:30;98444.03;;;34.73;26.88
48792;BME280;34587;48.816;9.420;2023-06-10T08:50:57;98449.34;;;35.24;26.70
48792;BME280;34587;48.816;9.420;2023-06-10T08:53:23;98449.09;;;35.68;26.31
48792;BME280;34587;48.816;9.420;2023-06-10T08:55:51;98458.47;;;35.01;26.28
48792;BME280;34587;48.816;9.420;2023-06-10T08:58:20;98442.78;;;37.79;23.75
48792;BME280;34587;48.816;9.420;2023-06-10T09:00:46;98439.88;;;38.97;22.79
48792;BME280;34587;48.816;9.420;2023-06-10T09:03:11;98449.13;;;39.96;20.82
48792;BME280;34587;48.816;9.420;2023-06-10T09:05:37;98447.94;;;36.06;24.30
48792;BME280;34587;48.816;9.420;2023-06-10T09:08:04;98440.63;;;35.99;24.60
48792;BME280;34587;48.816;9.420;2023-06-10T09:10:30;98442.34;;;35.51;25.91
48792;BME280;34587;48.816;9.420;2023-06-10T09:12:56;98436.84;;;36.76;25.03
48792;BME280;34587;48.816;9.420;2023-06-10T09:15:22;98436.84;;;34.29;26.61
48792;BME280;34587;48.816;9.420;2023-06-10T09:17:47;98428.09;;;34.57;26.84
48792;BME280;34587;48.816;9.420;2023-06-10T09:20:13;98429.47;;;37.25;23.69
48792;BME280;34587;48.816;9.420;2023-06-10T09:22:38;98437.59;;;35.81;24.56
48792;BME280;34587;48.816;9.420;2023-06-10T09:25:04;98439.91;;;31.56;30.44
48792;BME280;34587;48.816;9.420;2023-06-10T09:27:30;98429.69;;;30.09;32.40
48792;BME280;34587;48.816;9.420;2023-06-10T09:29:57;98434.06;;;29.58;34.45
48792;BME280;34587;48.816;9.420;2023-06-10T09:32:23;98426.38;;;30.50;33.09
48792;BME280;34587;48.816;9.420;2023-06-10T09:34:48;98416.03;;;32.80;29.24
48792;BME280;34587;48.816;9.420;2023-06-10T09:37:23;98420.69;;;33.70;27.96
48792;BME280;34587;48.816;9.420;2023-06-10T09:40:05;98422.78;;;34.99;26.67
48792;BME280;34587;48.816;9.420;2023-06-10T09:42:35;98420.59;;;33.78;27.94
48792;BME280;34587;48.816;9.420;2023-06-10T09:45:02;98421.91;;;30.66;31.58
48792;BME280;34587;48.816;9.420;2023-06-10T09:47:27;98434.06;;;29.58;33.40
48792;BME280;34587;48.816;9.420;2023-06-10T09:49:53;98421.94;;;30.24;32.98
48792;BME280;34587;48.816;9.420;2023-06-10T09:52:26;98423.81;;;31.72;30.99
48792;BME280;34587;48.816;9.420;2023-06-10T09:54:53;98422.28;;;32.33;29.33
48792;BME280;34587;48.816;9.420;2023-06-10T09:57:20;98417.75;;;35.39;25.40
48792;BME280;34587;48.816;9.420;2023-06-10T09:59:46;98422.78;;;32.68;28.16
48792;BME280;34587;48.816;9.420;2023-06-10T10:02:15;98419.00;;;32.85;28.00
48792;BME280;34587;48.816;9.420;2023-06-10T10:04:41;98412.38;;;32.73;28.12
48792;BME280;34587;48.816;9.420;2023-06-10T10:07:08;98412.81;;;33.83;27.28
48792;BME280;34587;48.816;9.420;2023-06-10T10:09:36;98414.19;;;33.79;27.04
48792;BME280;34587;48.816;9.420;2023-06-10T10:12:01;98409.56;;;32.35;29.09
48792;BME280;34587;48.816;9.420;2023-06-10T10:14:30;98408.28;;;33.98;27.22
48792;BME280;34587;48.816;9.420;2023-06-10T10:16:57;98416.97;;;30.37;31.81
48792;BME280;34587;48.816;9.420;2023-06-10T10:19:28;98414.63;;;31.17;30.83
48792;BME280;34587;48.816;9.420;2023-06-10T10:21:58;98411.53;;;33.04;29.25
48792;BME280;34587;48.816;9.420;2023-06-10T10:24:34;98409.31;;;32.06;29.25
48792;BME280;34587;48.816;9.420;2023-06-10T10:27:05;98406.97;;;32.11;29.57
48792;BME280;34587;48.816;9.420;2023-06-10T10:29:39;98406.28;;;31.45;29.87
48792;BME280;34587;48.816;9.420;2023-06-10T10:32:06;98400.38;;;30.76;31.65
48792;BME280;34587;48.816;9.420;2023-06-10T10:37:03;98384.09;;;34.86;26.71
48792;BME280;34587;48.816;9.420;2023-06-10T10:39:29;98386.66;;;34.94;25.81
48792;BME280;34587;48.816;9.420;2023-06-10T10:41:56;98389.34;;;36.41;24.65
48792;BME280;34587;48.816;9.420;2023-06-10T10:44:22;98392.06;;;35.43;25.39
48792;BME280;34587;48.816;9.420;2023-06-10T10:46:49;98396.59;;;34.93;25.27
48792;BME280;34587;48.816;9.420;2023-06-10T10:49:16;98394.44;;;34.82;25.38
48792;BME280;34587;48.816;9.420;2023-06-10T10:52:00;98394.72;;;36.34;23.53
48792;BME280;34587;48.816;9.420;2023-06-10T10:54:35;98398.69;;;35.13;25.07
48792;BME280;34587;48.816;9.420;2023-06-10T10:57:16;98385.75;;;35.51;24.98
48792;BME280;34587;48.816;9.420;2023-06-10T11:02:44;98384.00;;;33.77;26.57
48792;BME280;34587;48.816;9.420;2023-06-10T11:05:12;98380.31;;;34.44;25.94
48792;BME280;34587;48.816;9.420;2023-06-10T11:07:38;98387.41;;;32.33;28.33
48792;BME280;34587;48.816;9.420;2023-06-10T11:10:09;98378.53;;;35.09;25.23
48792;BME280;34587;48.816;9.420;2023-06-10T11:12:50;98374.31;;;36.66;23.39
48792;BME280;34587;48.816;9.420;2023-06-10T11:15:19;98367.84;;;37.93;21.69
48792;BME280;34587;48.816;9.420;2023-06-10T11:18:07;98378.75;;;32.85;28.34
48792;BME280;34587;48.816;9.420;2023-06-10T11:23:34;98374.19;;;30.37;31.17
48792;BME280;34587;48.816;9.420;2023-06-10T11:29:04;98371.91;;;34.32;25.74
48792;BME280;34587;48.816;9.420;2023-06-10T11:31:30;98368.66;;;32.87;26.59
48792;BME280;34587;48.816;9.420;2023-06-10T11:34:02;98377.00;;;35.21;25.48
48792;BME280;34587;48.816;9.420;2023-06-10T11:36:32;98365.59;;;32.44;27.82
48792;BME280;34587;48.816;9.420;2023-06-10T11:39:00;98365.84;;;32.81;27.79
48792;BME280;34587;48.816;9.420;2023-06-10T11:41:27;98372.78;;;31.08;29.83
48792;BME280;34587;48.816;9.420;2023-06-10T11:43:53;98354.69;;;31.59;29.50
48792;BME280;34587;48.816;9.420;2023-06-10T11:46:21;98367.44;;;31.25;30.37
48792;BME280;34587;48.816;9.420;2023-06-10T11:48:53;98354.50;;;30.55;31.14
48792;BME280;34587;48.816;9.420;2023-06-10T11:51:19;98356.59;;;29.84;33.02
48792;BME280;34587;48.816;9.420;2023-06-10T11:53:47;98362.97;;;29.39;32.94
48792;BME280;34587;48.816;9.420;2023-06-10T11:56:12;98351.78;;;29.10;33.56
48792;BME280;34587;48.816;9.420;2023-06-10T11:58:41;98357.66;;;29.39;34.66
48792;BME280;34587;48.816;9.420;2023-06-10T12:01:08;98351.06;;;29.78;33.40
48792;BME280;34587;48.816;9.420;2023-06-10T12:03:37;98357.34;;;30.53;31.87
48792;BME280;34587;48.816;9.420;2023-06-10T12:06:06;98349.44;;;30.35;32.30
48792;BME280;34587;48.816;9.420;2023-06-10T12:08:32;98344.09;;;31.66;30.52
48792;BME280;34587;48.816;9.420;2023-06-10T12:10:58;98337.00;;;32.60;28.86
48792;BME280;34587;48.816;9.420;2023-06-10T12:13:26;98352.16;;;30.43;30.62
48792;BME280;34587;48.816;9.420;2023-06-10T12:15:52;98356.09;;;29.29;32.62
48792;BME280;34587;48.816;9.420;2023-06-10T12:18:19;98353.31;;;28.59;33.95
48792;BME280;34587;48.816;9.420;2023-06-10T12:20:45;98350.09;;;28.37;34.15
48792;BME280;34587;48.816;9.420;2023-06-10T12:23:11;98343.22;;;29.50;33.20
48792;BME280;34587;48.816;9.420;2023-06-10T12:25:36;98344.09;;;30.27;31.88
48792;BME280;34587;48.816;9.420;2023-06-10T12:28:03;98347.41;;;29.79;31.53
48792;BME280;34587;48.816;9.420;2023-06-10T12:30:29;98338.75;;;29.85;32.00
48792;BME280;34587;48.816;9.420;2023-06-10T12:32:55;98335.56;;;29.29;32.09
48792;BME280;34587;48.816;9.420;2023-06-10T12:35:25;98335.47;;;29.13;32.55
48792;BME280;34587;48.816;9.420;2023-06-10T12:38:00;98331.31;;;29.44;32.82
48792;BME280;34587;48.816;9.420;2023-06-10T12:40:34;98329.72;;;29.26;33.05
48792;BME280;34587;48.816;9.420;2023-06-10T12:43:00;98331.84;;;30.16;31.45
48792;BME280;34587;48.816;9.420;2023-06-10T12:45:38;98334.50;;;30.83;31.07
48792;BME280;34587;48.816;9.420;2023-06-10T12:48:20;98329.81;;;29.68;31.45
48792;BME280;34587;48.816;9.420;2023-06-10T12:50:51;98341.69;;;29.48;32.09
48792;BME280;34587;48.816;9.420;2023-06-10T12:53:17;98347.66;;;28.62;33.17
48792;BME280;34587;48.816;9.420;2023-06-10T12:55:43;98337.75;;;29.08;33.12
48792;BME280;34587;48.816;9.420;2023-06-10T12:58:10;98346.34;;;29.19;32.08
48792;BME280;34587;48.816;9.420;2023-06-10T13:00:35;98333.47;;;29.15;31.90
48792;BME280;34587;48.816;9.420;2023-06-10T13:03:01;98328.34;;;29.22;31.42
48792;BME280;34587;48.816;9.420;2023-06-10T13:05:28;98315.06;;;30.49;31.58
48792;BME280;34587;48.816;9.420;2023-06-10T13:07:54;98330.44;;;30.46;30.42
48792;BME280;34587;48.816;9.420;2023-06-10T13:10:20;98330.66;;;30.11;31.16
48792;BME280;34587;48.816;9.420;2023-06-10T13:12:46;98323.25;;;29.88;30.92
48792;BME280;34587;48.816;9.420;2023-06-10T13:15:12;98315.84;;;30.25;29.91
48792;BME280;34587;48.816;9.420;2023-06-10T13:17:38;98316.13;;;30.80;30.17
48792;BME280;34587;48.816;9.420;2023-06-10T13:20:04;98318.03;;;30.45;29.16
48792;BME280;34587;48.816;9.420;2023-06-10T13:22:31;98321.41;;;30.64;29.57
48792;BME280;34587;48.816;9.420;2023-06-10T13:25:01;98309.75;;;30.81;30.19
48792;BME280;34587;48.816;9.420;2023-06-10T13:27:28;98308.72;;;31.31;29.70
48792;BME280;34587;48.816;9.420;2023-06-10T13:29:53;98311.22;;;30.51;30.22
48792;BME280;34587;48.816;9.420;2023-06-10T13:32:19;98305.03;;;29.92;30.99
48792;BME280;34587;48.816;9.420;2023-06-10T13:34:44;98308.03;;;31.21;30.14
48792;BME280;34587;48.816;9.420;2023-06-10T13:37:10;98311.38;;;30.58;29.35
48792;BME280;34587;48.816;9.420;2023-06-10T13:39:37;98311.47;;;29.47;31.15
48792;BME280;34587;48.816;9.420;2023-06-10T13:42:03;98307.19;;;29.28;31.49
48792;BME280;34587;48.816;9.420;2023-06-10T13:44:28;98310.22;;;29.33;30.64
48792;BME280;34587;48.816;9.420;2023-06-10T13:46:56;98300.81;;;29.81;29.24
48792;BME280;34587;48.816;9.420;2023-06-10T13:49:21;98298.00;;;30.33;30.13
48792;BME280;34587;48.816;9.420;2023-06-10T13:51:47;98298.34;;;30.55;29.95
48792;BME280;34587;48.816;9.420;2023-06-10T13:54:12;98300.66;;;30.25;30.46
48792;BME280;34587;48.816;9.420;2023-06-10T13:56:40;98299.69;;;29.92;31.52
48792;BME280;34587;48.816;9.420;2023-06-10T13:59:05;98298.41;;;29.62;32.23
48792;BME280;34587;48.816;9.420;2023-06-10T14:01:31;98306.53;;;28.82;33.51
48792;BME280;34587;48.816;9.420;2023-06-10T14:03:56;98301.59;;;28.34;35.13
48792;BME280;34587;48.816;9.420;2023-06-10T14:06:21;98305.44;;;28.22;35.51
48792;BME280;34587;48.816;9.420;2023-06-10T14:08:47;98301.19;;;27.83;35.43
48792;BME280;34587;48.816;9.420;2023-06-10T14:11:13;98301.63;;;27.79;36.17
48792;BME280;34587;48.816;9.420;2023-06-10T14:13:38;98300.78;;;27.78;36.65
48792;BME280;34587;48.816;9.420;2023-06-10T14:16:04;98295.06;;;28.01;35.91
48792;BME280;34587;48.816;9.420;2023-06-10T14:18:29;98296.50;;;27.95;36.13
48792;BME280;34587;48.816;9.420;2023-06-10T14:20:55;98298.06;;;27.88;35.52
48792;BME280;34587;48.816;9.420;2023-06-10T14:23:20;98297.72;;;28.64;35.28
48792;BME280;34587;48.816;9.420;2023-06-10T14:25:46;98291.81;;;29.22;34.40
48792;BME280;34587;48.816;9.420;2023-06-10T14:28:11;98291.97;;;30.23;32.50
48792;BME280;34587;48.816;9.420;2023-06-10T14:30:36;98290.63;;;29.77;32.22
48792;BME280;34587;48.816;9.420;2023-06-10T14:33:02;98285.97;;;29.87;32.59
48792;BME280;34587;48.816;9.420;2023-06-10T14:35:27;98280.25;;;30.16;31.13
48792;BME280;34587;48.816;9.420;2023-06-10T14:37:52;98283.75;;;29.66;32.22
48792;BME280;34587;48.816;9.420;2023-06-10T14:40:18;98285.22;;;30.03;31.51
48792;BME280;34587;48.816;9.420;2023-06-10T14:42:43;98291.28;;;30.13;32.27
48792;BME280;34587;48.816;9.420;2023-06-10T14:45:08;98278.97;;;30.53;31.45
48792;BME280;34587;48.816;9.420;2023-06-10T14:47:35;98282.00;;;30.74;31.66
48792;BME280;34587;48.816;9.420;2023-06-10T14:50:00;98263.59;;;30.46;31.55
48792;BME280;34587;48.816;9.420;2023-06-10T14:52:25;98271.25;;;29.40;32.93
48792;BME280;34587;48.816;9.420;2023-06-10T14:54:51;98267.50;;;28.81;34.64
48792;BME280;34587;48.816;9.420;2023-06-10T14:57:16;98278.22;;;28.46;35.11
48792;BME280;34587;48.816;9.420;2023-06-10T14:59:41;98279.09;;;27.63;36.28
48792;BME280;34587;48.816;9.420;2023-06-10T15:02:07;98282.09;;;27.51;36.30
48792;BME280;34587;48.816;9.420;2023-06-10T15:04:32;98278.03;;;27.56;36.38
48792;BME280;34587;48.816;9.420;2023-06-10T15:06:58;98284.75;;;27.51;35.79
48792;BME280;34587;48.816;9.420;2023-06-10T15:09:23;98274.06;;;27.33;35.39
48792;BME280;34587;48.816;9.420;2023-06-10T15:11:48;98271.84;;;27.28;34.45
48792;BME280;34587;48.816;9.420;2023-06-10T15:14:15;98277.84;;;27.30;34.81
48792;BME280;34587;48.816;9.420;2023-06-10T15:16:40;98272.34;;;27.41;33.80
48792;BME280;34587;48.816;9.420;2023-06-10T15:19:06;98265.31;;;28.05;33.51
48792;BME280;34587;48.816;9.420;2023-06-10T15:21:33;98262.34;;;28.62;32.80
48792;BME280;34587;48.816;9.420;2023-06-10T15:23:59;98258.25;;;29.11;32.30
48792;BME280;34587;48.816;9.420;2023-06-10T15:26:24;98252.34;;;29.60;32.24
48792;BME280;34587;48.816;9.420;2023-06-10T15:28:50;98257.25;;;29.47;32.41
48792;BME280;34587;48.816;9.420;2023-06-10T15:31:15;98245.00;;;29.02;33.26
48792;BME280;34587;48.816;9.420;2023-06-10T15:33:41;98253.19;;;29.34;32.60
48792;BME280;34587;48.816;9.420;2023-06-10T15:36:06;98249.59;;;29.52;31.90
48792;BME280;34587;48.816;9.420;2023-06-10T15:38:31;98246.75;;;29.53;32.30
48792;BME280;34587;48.816;9.420;2023-06-10T15:40:56;98246.34;;;29.66;32.29
48792;BME280;34587;48.816;9.420;2023-06-10T15:43:22;98249.94;;;30.07;32.11
48792;BME280;34587;48.816;9.420;2023-06-10T15:45:47;98253.66;;;29.56;33.23
48792;BME280;34587;48.816;9.420;2023-06-10T15:48:13;98240.31;;;29.30;32.20
48792;BME280;34587;48.816;9.420;2023-06-10T15:50:38;98251.59;;;29.50;31.98
48792;BME280;34587;48.816;9.420;2023-06-10T15:53:03;98250.91;;;29.82;31.75
48792;BME280;34587;48.816;9.420;2023-06-10T15:55:29;98253.94;;;29.53;31.48
48792;BME280;34587;48.816;9.420;2023-06-10T15:57:55;98252.34;;;29.34;31.93
48792;BME280;34587;48.816;9.420;2023-06-10T16:00:22;98252.81;;;29.29;31.71
48792;BME280;34587;48.816;9.420;2023-06-10T16:02:47;98251.66;;;29.58;31.11
48792;BME280;34587;48.816;9.420;2023-06-10T16:05:12;98247.19;;;29.32;32.39
48792;BME280;34587;48.816;9.420;2023-06-10T16:07:37;98254.66;;;29.55;31.56
48792;BME280;34587;48.816;9.420;2023-06-10T16:10:03;98232.53;;;29.44;32.09
48792;BME280;34587;48.816;9.420;2023-06-10T16:12:28;98243.50;;;29.67;31.66
48792;BME280;34587;48.816;9.420;2023-06-10T16:14:54;98247.66;;;29.28;31.51
48792;BME280;34587;48.816;9.420;2023-06-10T16:17:19;98239.09;;;29.16;32.39
48792;BME280;34587;48.816;9.420;2023-06-10T16:19:44;98240.59;;;29.18;31.86
48792;BME280;34587;48.816;9.420;2023-06-10T16:22:10;98243.97;;;29.55;31.18
48792;BME280;34587;48.816;9.420;2023-06-10T16:24:35;98240.03;;;29.75;31.35
48792;BME280;34587;48.816;9.420;2023-06-10T16:27:00;98246.75;;;29.87;30.73
48792;BME280;34587;48.816;9.420;2023-06-10T16:29:26;98239.53;;;29.37;31.59
48792;BME280;34587;48.816;9.420;2023-06-10T16:31:51;98239.50;;;28.77;33.17
48792;BME280;34587;48.816;9.420;2023-06-10T16:34:16;98240.72;;;28.29;34.15
48792;BME280;34587;48.816;9.420;2023-06-10T16:36:42;98246.34;;;27.90;34.90
48792;BME280;34587;48.816;9.420;2023-06-10T16:39:07;98244.25;;;27.57;35.03
48792;BME280;34587;48.816;9.420;2023-06-10T16:41:33;98243.09;;;27.41;35.00
48792;BME280;34587;48.816;9.420;2023-06-10T16:43:58;98252.91;;;27.31;35.26
48792;BME280;34587;48.816;9.420;2023-06-10T16:46:23;98247.41;;;27.42;35.71
48792;BME280;34587;48.816;9.420;2023-06-10T16:48:49;98242.69;;;27.91;34.71
48792;BME280;34587;48.816;9.420;2023-06-10T16:51:15;98243.00;;;28.60;34.19
48792;BME280;34587;48.816;9.420;2023-06-10T16:53:40;98246.50;;;28.78;33.53
48792;BME280;34587;48.816;9.420;2023-06-10T16:56:06;98239.69;;;28.58;33.90
48792;BME280;34587;48.816;9.420;2023-06-10T16:58:31;98240.06;;;28.63;34.05
48792;BME280;34587;48.816;9.420;2023-06-10T17:01:01;98249.41;;;28.31;34.42
48792;BME280;34587;48.816;9.420;2023-06-10T17:03:29;98255.03;;;28.28;35.17
48792;BME280;34587;48.816;9.420;2023-06-10T17:05:54;98260.16;;;27.76;35.67
48792;BME280;34587;48.816;9.420;2023-06-10T17:08:19;98267.84;;;27.52;36.45
48792;BME280;34587;48.816;9.420;2023-06-10T17:10:44;98262.19;;;27.55;36.30
48792;BME280;34587;48.816;9.420;2023-06-10T17:13:10;98274.19;;;27.31;36.37
48792;BME280;34587;48.816;9.420;2023-06-10T17:15:35;98278.22;;;26.88;37.46
48792;BME280;34587;48.816;9.420;2023-06-10T17:18:01;98285.09;;;26.72;37.75
48792;BME280;34587;48.816;9.420;2023-06-10T17:20:26;98290.69;;;26.59;38.13
48792;BME280;34587;48.816;9.420;2023-06-10T17:22:54;98287.59;;;26.54;38.62